Time;durP1;ratioP1;P1;durP2;ratioP2;P2;SDS_P1;SDS_P2;PMS_P1;PMS_P2;Temp;Humidity;BMP_temperature;BMP_pressure;BME280_temperature;BME280_humidity;BME280_pressure;Samples;Min_cycle;Max_cycle;Signal;HPM_P1;HPM_P2
2023/03/05 00:00:12;;;;;;;11.00;3.93;;;2.30;99.90;;;;;;5067617;28;20669;-80
2023/03/05 00:02:38;;;;;;;11.93;4.10;;;2.30;99.90;;;;;;5075097;28;20969;-80
2023/03/05 00:05:04;;;;;;;9.93;4.20;;;2.30;99.90;;;;;;5065245;28;20185;-81
2023/03/05 00:07:31;;;;;;;12.30;3.40;;;2.40;99.90;;;;;;5065892;28;20568;-80
2023/03/05 00:10:02;;;;;;;11.50;4.23;;;2.40;99.90;;;;;;5066172;28;20758;-80
2023/03/05 00:12:29;;;;;;;8.33;3.60;;;2.40;99.90;;;;;;5065950;28;20265;-81
2023/03/05 00:14:54;;;;;;;9.13;3.67;;;2.40;99.90;;;;;;5066166;28;20208;-81
2023/03/05 00:17:20;;;;;;;10.63;4.00;;;2.40;99.90;;;;;;5066027;28;20654;-81
2023/03/05 00:19:45;;;;;;;7.40;4.17;;;2.40;99.90;;;;;;5066088;28;20201;-80
2023/03/05 00:22:11;;;;;;;11.27;4.20;;;2.40;99.90;;;;;;5066059;28;20188;-80
2023/03/05 00:24:36;;;;;;;11.50;5.10;;;2.40;99.90;;;;;;5065343;28;20185;-80
2023/03/05 00:27:02;;;;;;;12.43;4.27;;;2.40;99.90;;;;;;5065547;28;20193;-80
2023/03/05 00:29:29;;;;;;;8.83;3.80;;;2.30;99.90;;;;;;5064408;28;20263;-81
2023/03/05 00:31:54;;;;;;;8.87;3.97;;;2.30;99.90;;;;;;5067198;28;20209;-80
2023/03/05 00:34:20;;;;;;;9.27;3.90;;;2.30;99.90;;;;;;5065223;28;20239;-80
2023/03/05 00:36:49;;;;;;;12.37;4.00;;;2.30;99.90;;;;;;5065610;28;20182;-80
2023/03/05 00:39:16;;;;;;;10.90;4.27;;;2.30;99.90;;;;;;5073520;28;20583;-80
2023/03/05 00:41:42;;;;;;;10.50;3.67;;;2.30;99.90;;;;;;5065713;28;20311;-80
2023/03/05 00:44:08;;;;;;;10.30;3.37;;;2.30;99.90;;;;;;5066549;28;20495;-80
2023/03/05 00:46:33;;;;;;;13.90;4.07;;;2.20;99.90;;;;;;5066830;28;20547;-80
2023/03/05 00:48:59;;;;;;;11.40;4.30;;;2.20;99.90;;;;;;5066736;28;20209;-80
2023/03/05 00:51:26;;;;;;;10.60;4.27;;;2.20;99.90;;;;;;5065220;28;20217;-80
2023/03/05 00:53:52;;;;;;;10.93;4.27;;;2.20;99.90;;;;;;5064529;28;20205;-80
2023/03/05 00:56:18;;;;;;;9.30;4.47;;;2.20;99.90;;;;;;5064946;28;20189;-80
2023/03/05 00:58:43;;;;;;;9.43;4.63;;;2.20;99.90;;;;;;5065104;28;20270;-80
2023/03/05 01:01:09;;;;;;;11.50;4.53;;;2.20;99.90;;;;;;5065182;28;20540;-80
2023/03/05 01:03:35;;;;;;;11.07;4.50;;;2.20;99.90;;;;;;5064896;28;20900;-80
2023/03/05 01:06:04;;;;;;;11.13;5.27;;;2.20;99.90;;;;;;5064823;28;20276;-80
2023/03/05 01:08:29;;;;;;;11.53;4.50;;;2.20;99.90;;;;;;5066103;28;20181;-80
2023/03/05 01:10:55;;;;;;;10.93;4.97;;;2.20;99.90;;;;;;5065076;28;20561;-80
2023/03/05 01:13:21;;;;;;;10.10;4.73;;;2.20;99.90;;;;;;5065929;28;20566;-80
2023/03/05 01:15:47;;;;;;;8.67;4.20;;;2.20;99.90;;;;;;5064604;28;21000;-80
2023/03/05 01:18:13;;;;;;;11.37;4.77;;;2.20;99.90;;;;;;5065898;28;20208;-81
2023/03/05 01:20:39;;;;;;;5.60;3.60;;;2.30;99.90;;;;;;5073130;28;20289;-80
2023/03/05 01:23:05;;;;;;;7.90;4.57;;;2.20;99.90;;;;;;5065211;28;20276;-80
2023/03/05 01:25:30;;;;;;;9.90;4.70;;;2.20;99.90;;;;;;5064377;28;20189;-80
2023/03/05 01:27:56;;;;;;;11.80;4.97;;;2.20;99.90;;;;;;5065907;28;20212;-80
2023/03/05 01:30:22;;;;;;;10.17;3.80;;;2.20;99.90;;;;;;5064434;28;20237;-80
2023/03/05 01:32:47;;;;;;;7.00;3.97;;;2.30;99.90;;;;;;5064661;28;20189;-80
2023/03/05 01:35:19;;;;;;;10.93;4.60;;;2.20;99.90;;;;;;5065676;28;20189;-81
2023/03/05 01:37:45;;;;;;;7.80;4.70;;;2.20;99.90;;;;;;5065460;28;20216;-80
2023/03/05 01:40:12;;;;;;;12.50;5.30;;;2.20;99.90;;;;;;5064419;28;20217;-80
2023/03/05 01:42:38;;;;;;;11.67;4.97;;;2.10;99.90;;;;;;5065397;28;20204;-79
2023/03/05 01:45:11;;;;;;;11.13;4.87;;;2.10;99.90;;;;;;5064058;28;20693;-80
2023/03/05 01:47:37;;;;;;;9.03;4.87;;;2.00;99.90;;;;;;5055365;28;20173;-80
2023/03/05 01:50:06;;;;;;;10.67;5.13;;;1.90;99.90;;;;;;5065414;28;20197;-80
2023/03/05 01:52:34;;;;;;;8.27;4.20;;;1.90;99.90;;;;;;5064740;28;20184;-80
2023/03/05 01:55:04;;;;;;;13.00;5.13;;;1.90;99.90;;;;;;5071874;28;20185;-80
2023/03/05 01:58:03;;;;;;;12.93;4.40;;;2.00;99.90;;;;;;5063864;28;20182;-80
2023/03/05 02:00:51;;;;;;;10.17;4.17;;;2.00;1.00;;;;;;5040884;28;20263;-81
2023/03/05 02:03:18;;;;;;;11.57;4.07;;;2.00;99.90;;;;;;5063841;28;20185;-80
2023/03/05 02:05:44;;;;;;;14.30;4.23;;;2.00;99.90;;;;;;5063396;28;20201;-81
2023/03/05 02:08:12;;;;;;;11.93;3.67;;;2.00;99.90;;;;;;5065687;28;20201;-81
2023/03/05 02:10:43;;;;;;;8.23;3.50;;;1.90;99.90;;;;;;5073570;28;20202;-80
2023/03/05 02:13:11;;;;;;;6.90;3.17;;;1.90;99.90;;;;;;5072484;28;20284;-79
2023/03/05 02:15:37;;;;;;;8.93;3.30;;;1.90;99.90;;;;;;5072322;28;20823;-79
2023/03/05 02:18:04;;;;;;;6.73;2.90;;;1.90;99.90;;;;;;5065550;28;20238;-80
2023/03/05 02:20:59;;;;;;;7.47;3.20;;;1.90;99.90;;;;;;5073431;28;20209;-78
2023/03/05 02:23:27;;;;;;;9.33;2.83;;;1.90;99.90;;;;;;5064333;28;20193;-79
2023/03/05 02:25:53;;;;;;;7.53;2.63;;;1.90;99.90;;;;;;5063921;28;20222;-78
2023/03/05 02:28:37;;;;;;;6.57;3.20;;;1.90;99.90;;;;;;5073252;28;20193;-79
2023/03/05 02:31:09;;;;;;;8.87;2.63;;;1.90;99.90;;;;;;5064608;28;20197;-79
2023/03/05 02:33:35;;;;;;;9.13;2.97;;;1.90;99.90;;;;;;5073017;28;20592;-79
2023/03/05 02:36:01;;;;;;;9.43;2.70;;;1.90;99.90;;;;;;5064027;28;20282;-78
2023/03/05 02:38:26;;;;;;;7.40;2.50;;;1.90;99.90;;;;;;5064011;28;20181;-80
2023/03/05 02:40:52;;;;;;;10.10;2.67;;;1.90;99.90;;;;;;5065260;28;20230;-78
2023/03/05 02:43:17;;;;;;;9.13;3.03;;;1.90;99.90;;;;;;5064167;28;20572;-79
2023/03/05 02:45:43;;;;;;;8.37;2.70;;;2.00;99.90;;;;;;5063580;28;20264;-79
2023/03/05 02:48:09;;;;;;;8.10;2.40;;;2.10;99.90;;;;;;5064232;28;20645;-79
2023/03/05 02:50:35;;;;;;;8.73;2.63;;;2.10;99.90;;;;;;5063680;28;20837;-80
2023/03/05 02:53:01;;;;;;;8.23;2.73;;;2.10;99.90;;;;;;5073101;28;20637;-78
2023/03/05 02:55:26;;;;;;;10.23;2.40;;;2.10;99.90;;;;;;5067706;28;20189;-79
2023/03/05 02:57:52;;;;;;;5.33;2.50;;;2.10;99.90;;;;;;5067542;28;20272;-78
2023/03/05 03:00:18;;;;;;;9.67;2.77;;;2.10;99.90;;;;;;5068961;28;20202;-79
2023/03/05 03:02:43;;;;;;;10.03;2.50;;;2.10;99.90;;;;;;5066121;28;20189;-80
2023/03/05 03:05:09;;;;;;;10.73;2.70;;;2.10;99.90;;;;;;5069502;28;20256;-81
2023/03/05 03:07:35;;;;;;;10.70;2.93;;;2.10;99.90;;;;;;5069570;28;20677;-80
2023/03/05 03:10:02;;;;;;;8.13;2.93;;;2.20;99.90;;;;;;5069954;28;20221;-80
2023/03/05 03:12:27;;;;;;;9.37;2.77;;;2.20;99.90;;;;;;5068924;28;20595;-80
2023/03/05 03:14:53;;;;;;;7.83;2.30;;;2.20;99.90;;;;;;5069469;28;20268;-80
2023/03/05 03:17:18;;;;;;;13.57;4.07;;;2.20;99.90;;;;;;5068882;28;20263;-80
2023/03/05 03:19:44;;;;;;;7.90;2.80;;;2.10;1.00;;;;;;5067247;28;20225;-80
2023/03/05 03:22:12;;;;;;;7.77;2.20;;;2.10;1.00;;;;;;5067410;28;20178;-80
2023/03/05 03:24:38;;;;;;;6.30;2.53;;;2.00;1.00;;;;;;5068292;28;20669;-81
2023/03/05 03:27:04;;;;;;;7.03;2.40;;;1.90;1.00;;;;;;5067761;28;20246;-81
2023/03/05 03:29:30;;;;;;;5.80;2.57;;;2.00;99.90;;;;;;5067278;28;20209;-79
2023/03/05 03:31:56;;;;;;;10.63;2.40;;;2.00;1.00;;;;;;5068446;28;20217;-80
2023/03/05 03:34:22;;;;;;;7.03;2.80;;;2.00;1.00;;;;;;5068464;28;20244;-80
2023/03/05 03:36:49;;;;;;;10.53;2.73;;;2.00;1.00;;;;;;5067096;28;20178;-80
2023/03/05 03:39:16;;;;;;;9.97;3.10;;;1.90;1.00;;;;;;5067463;28;20707;-80
2023/03/05 03:41:51;;;;;;;8.67;2.97;;;1.90;1.00;;;;;;5068286;28;20259;-79
2023/03/05 03:44:19;;;;;;;9.17;2.93;;;2.00;1.00;;;;;;5067936;28;20192;-79
2023/03/05 03:46:46;;;;;;;8.17;2.83;;;1.90;99.90;;;;;;5067365;28;20239;-80
2023/03/05 03:49:21;;;;;;;7.60;2.80;;;1.90;99.90;;;;;;5067527;28;20267;-79
2023/03/05 03:51:47;;;;;;;7.60;3.20;;;1.90;99.90;;;;;;5074437;28;20196;-80
2023/03/05 03:54:14;;;;;;;7.93;3.20;;;2.00;99.90;;;;;;5068044;28;20184;-79
2023/03/05 03:56:40;;;;;;;10.30;3.23;;;2.00;99.90;;;;;;5066793;28;20181;-80
2023/03/05 03:59:05;;;;;;;9.97;3.43;;;2.00;99.90;;;;;;5067163;28;20258;-80
2023/03/05 04:01:31;;;;;;;8.37;2.63;;;2.00;99.90;;;;;;5067903;28;20671;-79
2023/03/05 04:03:56;;;;;;;7.60;2.87;;;1.90;99.90;;;;;;5067661;28;20264;-80
2023/03/05 04:06:22;;;;;;;8.00;3.17;;;1.90;1.00;;;;;;5066359;28;20189;-80
2023/03/05 04:08:48;;;;;;;7.33;3.10;;;1.80;1.00;;;;;;5066449;28;20215;-79
2023/03/05 04:11:14;;;;;;;7.63;3.27;;;1.80;1.00;;;;;;5066370;28;20231;-80
2023/03/05 04:13:40;;;;;;;12.97;3.47;;;1.90;1.00;;;;;;5065928;28;20212;-79
2023/03/05 04:16:06;;;;;;;9.97;3.23;;;1.90;1.00;;;;;;5067905;28;20185;-80
2023/03/05 04:18:32;;;;;;;10.80;3.47;;;1.90;1.00;;;;;;5065970;28;20653;-80
2023/03/05 04:20:58;;;;;;;13.73;3.57;;;1.90;1.00;;;;;;5066980;28;20661;-81
2023/03/05 04:23:24;;;;;;;8.83;3.27;;;1.90;1.00;;;;;;5067364;28;20187;-79
2023/03/05 04:25:49;;;;;;;11.17;3.80;;;2.00;1.00;;;;;;5067307;28;20588;-80
2023/03/05 04:28:16;;;;;;;7.40;2.87;;;2.00;1.00;;;;;;5066130;28;20185;-79
2023/03/05 04:30:42;;;;;;;9.07;3.00;;;2.00;1.00;;;;;;5065691;28;20208;-80
2023/03/05 04:33:07;;;;;;;12.40;3.07;;;2.00;1.00;;;;;;5067013;28;20181;-80
2023/03/05 04:35:33;;;;;;;7.53;2.90;;;2.00;1.00;;;;;;5066996;28;20228;-80
2023/03/05 04:37:58;;;;;;;9.87;3.00;;;2.00;1.00;;;;;;5065980;28;20189;-79
2023/03/05 04:40:24;;;;;;;7.70;3.40;;;2.00;1.00;;;;;;5065470;28;20198;-79
2023/03/05 04:42:49;;;;;;;8.03;3.20;;;2.00;1.00;;;;;;5065671;28;20204;-81
2023/03/05 04:45:16;;;;;;;10.07;3.20;;;2.00;1.00;;;;;;5065362;28;20189;-79
2023/03/05 04:47:42;;;;;;;6.83;2.57;;;2.10;1.00;;;;;;5066502;28;20181;-79
2023/03/05 04:50:10;;;;;;;4.90;2.87;;;2.00;1.00;;;;;;5065550;28;20232;-80
2023/03/05 04:52:39;;;;;;;5.57;3.03;;;2.10;1.00;;;;;;5066512;28;20184;-80
2023/03/05 04:55:05;;;;;;;8.37;3.13;;;2.10;99.90;;;;;;5066097;28;20173;-80
2023/03/05 04:57:31;;;;;;;8.60;3.20;;;2.20;99.90;;;;;;5066554;28;20250;-80
2023/03/05 04:59:56;;;;;;;5.03;3.00;;;2.10;99.90;;;;;;5065316;28;20238;-79
2023/03/05 05:02:22;;;;;;;5.07;2.67;;;2.10;99.90;;;;;;5066391;28;20220;-80
2023/03/05 05:04:50;;;;;;;7.73;2.80;;;2.10;99.90;;;;;;5066315;28;20189;-81
2023/03/05 05:07:16;;;;;;;7.50;3.13;;;2.10;1.00;;;;;;5068836;28;20261;-81
2023/03/05 05:09:41;;;;;;;8.10;2.73;;;2.20;99.90;;;;;;5067289;28;20339;-80
2023/03/05 05:12:09;;;;;;;6.47;2.77;;;2.20;99.90;;;;;;5065375;28;20237;-79
2023/03/05 05:14:35;;;;;;;5.03;2.87;;;2.20;99.90;;;;;;5064815;28;20197;-81
2023/03/05 05:17:03;;;;;;;5.60;2.70;;;2.20;99.90;;;;;;5065946;28;20185;-79
2023/03/05 05:19:30;;;;;;;9.37;3.03;;;2.20;99.90;;;;;;5072171;28;20231;-80
2023/03/05 05:21:56;;;;;;;8.27;2.90;;;2.20;99.90;;;;;;5064985;28;20669;-79
2023/03/05 05:24:21;;;;;;;8.50;3.70;;;2.10;99.90;;;;;;5065471;28;20266;-79
2023/03/05 05:26:47;;;;;;;7.53;3.10;;;2.10;99.90;;;;;;5065945;28;20254;-80
2023/03/05 05:29:12;;;;;;;7.37;3.33;;;2.10;99.90;;;;;;5064997;28;20621;-79
2023/03/05 05:31:38;;;;;;;9.40;3.83;;;2.10;99.90;;;;;;5064923;28;20205;-80
2023/03/05 05:34:03;;;;;;;7.00;3.17;;;2.10;99.90;;;;;;5066390;28;20186;-79
2023/03/05 05:36:29;;;;;;;8.80;3.80;;;2.10;99.90;;;;;;5065244;28;20181;-80
2023/03/05 05:38:55;;;;;;;9.17;3.70;;;2.00;99.90;;;;;;5066539;28;20202;-80
2023/03/05 05:41:20;;;;;;;11.00;4.10;;;2.00;99.90;;;;;;5064709;28;20354;-79
2023/03/05 05:43:48;;;;;;;7.83;3.43;;;2.00;99.90;;;;;;5066456;28;20196;-79
2023/03/05 05:46:16;;;;;;;6.67;3.80;;;2.00;99.90;;;;;;5073711;28;20703;-79
2023/03/05 05:48:43;;;;;;;8.67;4.10;;;1.90;99.90;;;;;;5064352;28;20208;-80
2023/03/05 05:51:13;;;;;;;9.20;3.77;;;1.90;99.90;;;;;;5066355;28;20256;-81
2023/03/05 05:53:39;;;;;;;9.40;3.90;;;1.90;99.90;;;;;;5066035;28;20170;-79
2023/03/05 05:56:07;;;;;;;6.73;3.50;;;1.90;99.90;;;;;;5064809;28;20177;-79
2023/03/05 05:58:32;;;;;;;6.30;3.70;;;2.00;99.90;;;;;;5065860;28;20193;-79
2023/03/05 06:00:58;;;;;;;6.77;3.87;;;2.00;99.90;;;;;;5064452;28;20568;-80
2023/03/05 06:03:24;;;;;;;8.27;4.00;;;2.00;99.90;;;;;;5064571;28;20185;-79
2023/03/05 06:05:50;;;;;;;7.00;3.50;;;2.00;99.90;;;;;;5065650;28;20185;-81
2023/03/05 06:08:16;;;;;;;6.67;3.57;;;2.00;99.90;;;;;;5065805;28;20272;-80
2023/03/05 06:10:42;;;;;;;9.43;3.47;;;2.00;99.90;;;;;;5072474;28;20347;-79
2023/03/05 06:13:07;;;;;;;7.47;3.77;;;2.00;99.90;;;;;;5065757;28;20208;-79
2023/03/05 06:15:33;;;;;;;7.73;3.30;;;2.00;99.90;;;;;;5055731;28;20726;-79
2023/03/05 06:17:59;;;;;;;7.23;3.57;;;2.00;99.90;;;;;;5064359;28;20265;-80
2023/03/05 06:20:25;;;;;;;6.67;3.60;;;2.10;99.90;;;;;;5064950;28;20728;-79
2023/03/05 06:22:50;;;;;;;5.77;3.50;;;2.00;99.90;;;;;;5064514;28;20188;-80
2023/03/05 06:25:16;;;;;;;9.60;3.53;;;2.00;99.90;;;;;;5065532;28;20185;-79
2023/03/05 06:27:41;;;;;;;6.97;3.70;;;2.10;99.90;;;;;;5065875;28;20234;-79
2023/03/05 06:30:09;;;;;;;7.90;3.60;;;2.10;99.90;;;;;;5069760;28;20668;-80
2023/03/05 06:32:35;;;;;;;6.67;3.20;;;2.10;99.90;;;;;;5068068;28;20180;-80
2023/03/05 06:35:00;;;;;;;5.33;3.30;;;2.20;99.90;;;;;;5069862;28;20185;-78
2023/03/05 06:37:26;;;;;;;8.40;3.27;;;2.20;1.00;;;;;;5069304;28;20212;-79
2023/03/05 06:39:51;;;;;;;9.23;3.27;;;2.20;1.00;;;;;;5068244;28;20274;-79
2023/03/05 06:42:18;;;;;;;4.83;3.20;;;2.20;1.00;;;;;;5067099;28;20186;-81
2023/03/05 06:44:44;;;;;;;8.33;3.73;;;2.20;1.00;;;;;;5067597;28;20191;-80
2023/03/05 06:47:10;;;;;;;6.13;2.80;;;2.30;1.00;;;;;;5068850;28;20269;-79
2023/03/05 06:49:37;;;;;;;8.27;2.97;;;2.30;1.00;;;;;;5067484;28;20312;-79
2023/03/05 06:52:04;;;;;;;4.97;3.40;;;2.30;1.00;;;;;;5076482;28;20209;-79
2023/03/05 06:54:30;;;;;;;8.97;3.37;;;2.30;1.00;;;;;;5068665;28;20219;-79
2023/03/05 06:56:55;;;;;;;8.53;3.60;;;2.40;1.00;;;;;;5067833;28;20183;-80
2023/03/05 06:59:21;;;;;;;6.80;3.20;;;2.40;1.00;;;;;;5068844;28;20204;-79
2023/03/05 07:01:47;;;;;;;6.90;3.70;;;2.40;1.00;;;;;;5069042;28;20192;-81
2023/03/05 07:04:14;;;;;;;5.60;2.90;;;2.50;1.00;;;;;;5071036;28;20181;-81
2023/03/05 07:06:41;;;;;;;5.10;3.30;;;2.50;1.00;;;;;;5071514;28;20632;-79
2023/03/05 07:09:08;;;;;;;7.37;3.03;;;2.60;99.90;;;;;;5068288;28;20633;-79
2023/03/05 07:11:34;;;;;;;8.27;3.23;;;2.60;99.90;;;;;;5068551;28;20225;-81
2023/03/05 07:13:59;;;;;;;12.13;3.27;;;2.60;99.90;;;;;;5068867;28;20691;-81
2023/03/05 07:16:27;;;;;;;6.90;3.00;;;2.60;99.90;;;;;;5067923;28;20280;-81
2023/03/05 07:18:54;;;;;;;9.47;3.43;;;2.60;99.90;;;;;;5069491;28;20209;-81
2023/03/05 07:21:23;;;;;;;6.43;3.20;;;2.60;99.90;;;;;;5068400;28;20181;-81
2023/03/05 07:23:49;;;;;;;7.93;3.40;;;2.60;99.90;;;;;;5061464;28;20304;-81
2023/03/05 07:26:15;;;;;;;5.60;2.70;;;2.60;99.90;;;;;;5069056;28;20185;-79
2023/03/05 07:28:42;;;;;;;6.47;3.10;;;2.60;99.90;;;;;;5066278;28;20420;-79
2023/03/05 07:31:18;;;;;;;5.87;2.70;;;2.60;99.90;;;;;;5062865;28;20213;-79
2023/03/05 07:33:44;;;;;;;7.20;3.17;;;2.60;99.90;;;;;;5063931;28;20657;-79
2023/03/05 07:36:11;;;;;;;5.23;3.40;;;2.60;99.90;;;;;;5062527;28;20189;-78
2023/03/05 07:38:37;;;;;;;7.67;2.80;;;2.60;99.90;;;;;;5062392;28;20948;-78
2023/03/05 07:41:07;;;;;;;6.07;2.97;;;2.70;99.90;;;;;;5064611;28;20189;-80
2023/03/05 07:43:33;;;;;;;5.47;2.90;;;2.70;99.90;;;;;;5064814;28;20181;-79
2023/03/05 07:46:02;;;;;;;7.33;3.93;;;2.70;99.90;;;;;;5065740;28;20728;-79
2023/03/05 07:48:27;;;;;;;5.63;2.90;;;2.70;99.90;;;;;;5064124;28;20224;-81
2023/03/05 07:51:01;;;;;;;5.23;2.93;;;2.70;99.90;;;;;;5064046;28;20297;-80
2023/03/05 07:53:26;;;;;;;7.87;3.20;;;2.70;99.90;;;;;;5063707;28;20189;-79
2023/03/05 07:55:52;;;;;;;7.10;2.90;;;2.80;99.90;;;;;;5066024;28;20234;-80
2023/03/05 07:58:17;;;;;;;5.00;2.70;;;2.90;99.90;;;;;;5066232;28;20181;-80
2023/03/05 08:00:43;;;;;;;4.23;3.30;;;2.80;99.90;;;;;;5067688;28;20182;-80
2023/03/05 08:03:08;;;;;;;5.47;3.03;;;2.70;99.90;;;;;;5066105;28;20196;-80
2023/03/05 08:05:37;;;;;;;5.23;3.30;;;2.50;99.90;;;;;;5067197;28;20209;-80
2023/03/05 08:08:02;;;;;;;7.20;3.40;;;2.50;99.90;;;;;;5067366;28;20217;-79
2023/03/05 08:10:28;;;;;;;5.40;2.93;;;2.50;1.00;;;;;;5066530;28;20237;-80
2023/03/05 08:12:54;;;;;;;6.83;3.53;;;2.60;1.00;;;;;;5063474;28;20661;-81
2023/03/05 08:15:19;;;;;;;6.80;3.70;;;2.70;1.00;;;;;;5062543;28;20531;-79
2023/03/05 08:17:45;;;;;;;6.20;3.33;;;2.80;1.00;;;;;;5063112;28;20193;-79
2023/03/05 08:20:11;;;;;;;4.80;3.23;;;2.90;1.00;;;;;;5064834;28;20712;-80
2023/03/05 08:22:37;;;;;;;7.83;3.00;;;2.90;1.00;;;;;;5073443;28;20184;-80
2023/03/05 08:25:04;;;;;;;7.70;3.20;;;3.00;99.90;;;;;;5068372;28;20549;-79
2023/03/05 08:27:30;;;;;;;6.83;3.60;;;3.00;99.90;;;;;;5066818;28;20193;-80
2023/03/05 08:29:55;;;;;;;7.00;4.20;;;3.10;99.90;;;;;;5066750;28;20213;-80
2023/03/05 08:32:21;;;;;;;6.53;3.33;;;3.20;99.90;;;;;;5066088;28;20227;-78
2023/03/05 08:34:47;;;;;;;7.33;3.00;;;3.30;99.90;;;;;;5068577;28;20208;-78
2023/03/05 08:37:13;;;;;;;7.03;3.00;;;3.40;99.90;;;;;;5068584;28;20972;-79
2023/03/05 08:39:38;;;;;;;4.90;2.90;;;3.40;99.90;;;;;;5065627;28;20205;-79
2023/03/05 08:42:05;;;;;;;5.30;3.30;;;3.30;99.90;;;;;;5066138;28;20185;-79
2023/03/05 08:44:30;;;;;;;6.70;3.87;;;3.40;99.90;;;;;;5066097;28;20193;-80
2023/03/05 08:46:56;;;;;;;6.63;3.37;;;3.40;99.90;;;;;;5066946;28;20609;-79
2023/03/05 08:49:22;;;;;;;4.90;2.87;;;3.30;99.90;;;;;;5066899;28;20308;-80
2023/03/05 08:51:48;;;;;;;9.00;3.80;;;3.20;99.90;;;;;;5064352;28;20201;-81
2023/03/05 08:54:14;;;;;;;7.87;3.70;;;3.20;99.90;;;;;;5058574;28;20180;-81
2023/03/05 08:56:39;;;;;;;4.00;2.70;;;3.10;99.90;;;;;;5063875;28;20182;-79
2023/03/05 08:59:06;;;;;;;4.97;2.90;;;3.00;99.90;;;;;;5075915;28;20262;-81
2023/03/05 09:01:31;;;;;;;5.67;3.80;;;3.00;99.90;;;;;;5071434;28;20181;-80
2023/03/05 09:04:00;;;;;;;4.43;2.70;;;3.10;99.90;;;;;;5066609;28;20212;-81
2023/03/05 09:06:26;;;;;;;12.77;6.40;;;3.10;99.90;;;;;;5065403;28;20212;-79
2023/03/05 09:08:53;;;;;;;5.47;3.20;;;3.20;99.90;;;;;;5066403;28;20237;-79
2023/03/05 09:11:19;;;;;;;8.03;3.53;;;3.30;99.90;;;;;;5066855;28;20209;-79
2023/03/05 09:13:45;;;;;;;7.17;3.70;;;3.50;99.90;;;;;;5067286;28;20201;-79
2023/03/05 09:16:15;;;;;;;8.37;4.60;;;3.60;99.90;;;;;;5066311;28;20191;-79
2023/03/05 09:18:41;;;;;;;12.47;6.40;;;3.70;99.90;;;;;;5074613;28;20201;-82
2023/03/05 09:21:13;;;;;;;8.67;3.40;;;3.80;99.90;;;;;;5065501;28;20201;-80
2023/03/05 09:23:39;;;;;;;5.83;3.03;;;3.90;99.90;;;;;;5076292;28;20193;-80
2023/03/05 09:26:10;;;;;;;3.90;3.00;;;3.90;99.90;;;;;;5068597;28;20185;-81
2023/03/05 09:28:37;;;;;;;5.17;2.37;;;4.00;99.90;;;;;;5065606;28;20177;-79
2023/03/05 09:31:04;;;;;;;4.33;2.37;;;3.90;99.90;;;;;;5066554;28;20300;-82
2023/03/05 09:33:31;;;;;;;4.37;2.40;;;3.80;99.90;;;;;;5066398;28;21043;-81
2023/03/05 09:35:57;;;;;;;4.00;2.43;;;3.90;99.90;;;;;;5075617;28;20213;-81
2023/03/05 09:38:23;;;;;;;4.23;2.67;;;4.10;99.90;;;;;;5067277;28;20584;-80
2023/03/05 09:41:16;;;;;;;6.80;3.00;;;4.20;99.90;;;;;;5066101;28;20186;-81
2023/03/05 09:44:13;;;;;;;5.87;3.13;;;4.20;99.90;;;;;;5065122;28;20279;-79
2023/03/05 09:46:48;;;;;;;5.70;3.10;;;4.30;99.90;;;;;;5068940;28;20269;-80
2023/03/05 09:49:19;;;;;;;5.63;2.47;;;4.40;96.10;;;;;;5072414;28;20219;-80
2023/03/05 09:51:51;;;;;;;3.33;2.57;;;4.40;79.20;;;;;;5065528;28;20205;-79
2023/03/05 09:54:21;;;;;;;3.70;2.77;;;4.20;63.80;;;;;;5063679;28;20189;-79
2023/03/05 09:56:52;;;;;;;8.53;2.40;;;4.20;83.00;;;;;;5065112;28;20676;-79
2023/03/05 09:59:45;;;;;;;3.43;2.43;;;4.20;92.70;;;;;;5071536;28;20205;-79
2023/03/05 10:02:22;;;;;;;2.60;2.10;;;4.20;99.20;;;;;;5062808;28;20758;-80
2023/03/05 10:04:54;;;;;;;4.03;2.50;;;4.20;93.60;;;;;;5064214;28;20181;-80
2023/03/05 10:07:32;;;;;;;4.73;2.57;;;4.30;95.00;;;;;;5064364;28;20182;-82
2023/03/05 10:10:10;;;;;;;4.47;2.70;;;4.40;92.00;;;;;;5071517;28;20270;-80
2023/03/05 10:12:44;;;;;;;4.00;2.30;;;4.50;83.00;;;;;;5064032;28;20266;-81
2023/03/05 10:15:26;;;;;;;3.27;2.10;;;4.60;68.20;;;;;;5063597;28;20269;-79
2023/03/05 10:18:19;;;;;;;5.37;2.30;;;4.70;46.80;;;;;;5064469;28;20655;-79
2023/03/05 10:21:08;;;;;;;7.20;2.60;;;4.70;33.10;;;;;;5063765;28;20250;-82
2023/03/05 10:24:02;;;;;;;5.73;3.07;;;4.80;30.80;;;;;;5061524;28;20196;-81
2023/03/05 10:27:07;;;;;;;3.83;2.47;;;4.80;24.50;;;;;;5061479;28;20189;-79
2023/03/05 10:30:01;;;;;;;3.77;2.10;;;5.00;1.00;;;;;;5068091;28;20696;-80
2023/03/05 10:33:06;;;;;;;2.93;2.30;;;5.00;1.00;;;;;;5062329;28;20201;-82
2023/03/05 10:35:34;;;;;;;4.20;2.00;;;5.10;1.00;;;;;;5042866;28;20193;-81
2023/03/05 10:38:15;;;;;;;5.80;3.23;;;5.20;1.00;;;;;;5070664;28;20193;-80
2023/03/05 10:40:54;;;;;;;2.10;1.70;;;5.00;1.00;;;;;;5069886;28;20680;-80
2023/03/05 10:43:40;;;;;;;4.60;1.97;;;4.80;1.00;;;;;;5055655;28;20185;-81
2023/03/05 10:46:17;;;;;;;3.30;2.10;;;4.80;1.00;;;;;;5062695;28;21285;-80
2023/03/05 10:48:54;;;;;;;5.87;2.00;;;4.70;1.00;;;;;;5063864;28;20205;-80
2023/03/05 10:51:38;;;;;;;4.07;2.23;;;4.30;1.00;;;;;;5065919;28;20224;-80
2023/03/05 10:54:29;;;;;;;3.07;2.00;;;4.30;1.00;;;;;;5064791;28;20177;-82
2023/03/05 10:57:25;;;;;;;5.10;2.87;;;4.30;1.00;;;;;;5072901;28;20177;-81
2023/03/05 11:00:05;;;;;;;4.60;1.73;;;4.50;1.00;;;;;;5045207;28;20697;-81
2023/03/05 11:02:31;;;;;;;3.80;1.80;;;4.40;1.00;;;;;;5063829;28;20782;-82
2023/03/05 11:04:57;;;;;;;2.23;1.80;;;4.40;1.00;;;;;;5071811;28;20236;-80
2023/03/05 11:07:35;;;;;;;4.93;2.73;;;4.10;1.00;;;;;;5063656;28;20209;-79
2023/03/05 11:10:13;;;;;;;3.53;2.40;;;4.00;1.00;;;;;;5055330;28;20217;-80
2023/03/05 11:12:39;;;;;;;3.87;2.10;;;4.00;1.00;;;;;;5071591;28;20892;-82
2023/03/05 11:15:08;;;;;;;7.47;3.47;;;3.90;1.00;;;;;;5064601;28;20185;-82
2023/03/05 11:17:44;;;;;;;6.70;2.87;;;4.00;1.00;;;;;;5066369;28;20653;-82
2023/03/05 11:20:21;;;;;;;15.33;9.37;;;4.10;1.00;;;;;;5072857;28;20234;-81
2023/03/05 11:23:09;;;;;;;4.17;1.90;;;4.30;1.00;;;;;;5076392;28;20178;-81
2023/03/05 11:25:48;;;;;;;3.93;2.53;;;4.20;1.00;;;;;;5064269;28;20189;-82
2023/03/05 11:28:19;;;;;;;3.70;2.93;;;4.30;1.00;;;;;;5075700;28;20189;-85
2023/03/05 11:30:58;;;;;;;5.07;2.60;;;4.40;1.00;;;;;;5066464;28;20212;-81
2023/03/05 11:33:24;;;;;;;3.23;2.50;;;4.40;1.00;;;;;;5066106;28;20645;-80
2023/03/05 11:35:52;;;;;;;3.37;2.30;;;4.60;1.00;;;;;;5065065;28;20569;-81
2023/03/05 11:38:23;;;;;;;3.77;2.43;;;4.60;1.00;;;;;;5074182;28;20192;-80
2023/03/05 11:40:51;;;;;;;3.17;2.80;;;4.70;1.00;;;;;;5068207;28;20252;-80
2023/03/05 11:43:20;;;;;;;4.70;2.90;;;4.90;1.00;;;;;;5069661;28;20193;-79
2023/03/05 11:45:53;;;;;;;4.70;2.23;;;4.90;1.00;;;;;;5070187;28;20186;-77
2023/03/05 11:48:30;;;;;;;4.93;3.07;;;4.90;1.00;;;;;;5068055;28;20653;-81
2023/03/05 11:51:01;;;;;;;5.23;2.20;;;4.90;1.00;;;;;;5067853;28;20251;-83
2023/03/05 11:53:37;;;;;;;3.23;2.13;;;4.80;1.00;;;;;;5067837;28;20189;-83
2023/03/05 11:56:10;;;;;;;3.90;2.07;;;4.80;1.00;;;;;;5074866;28;20238;-81
2023/03/05 11:58:39;;;;;;;3.97;2.07;;;4.90;1.00;;;;;;5065855;28;20200;-82
2023/03/05 12:01:16;;;;;;;4.67;2.30;;;4.90;1.00;;;;;;5066118;28;20563;-81
2023/03/05 12:03:43;;;;;;;4.60;2.67;;;5.00;1.00;;;;;;5065911;28;20170;-81
2023/03/05 12:06:18;;;;;;;3.07;2.00;;;4.90;1.00;;;;;;5064536;28;20185;-81
2023/03/05 12:08:49;;;;;;;8.33;4.10;;;4.90;1.00;;;;;;5065609;28;20735;-81
2023/03/05 12:11:27;;;;;;;7.03;3.93;;;4.90;1.00;;;;;;5066143;28;20201;-81
2023/03/05 12:14:13;;;;;;;8.07;3.23;;;4.90;1.00;;;;;;5067839;28;20225;-79
2023/03/05 12:16:44;;;;;;;3.70;2.40;;;4.90;1.00;;;;;;5060825;28;20178;-81
2023/03/05 12:24:25;;;;;;;4.00;2.47;;;4.90;1.00;;;;;;5826635;23;20700;-81
2023/03/05 12:27:02;;;;;;;10.63;5.27;;;5.00;1.00;;;;;;5023759;28;20251;-78
2023/03/05 12:29:36;;;;;;;7.63;3.07;;;5.20;1.00;;;;;;5028077;28;20237;-78
2023/03/05 12:32:03;;;;;;;5.47;3.03;;;5.30;1.00;;;;;;5029183;28;20214;-79
2023/03/05 12:34:41;;;;;;;12.50;6.13;;;5.30;1.00;;;;;;5024073;28;20206;-79
2023/03/05 12:37:09;;;;;;;15.67;7.30;;;5.30;1.00;;;;;;5020124;28;20250;-81
2023/03/05 12:39:46;;;;;;;7.00;3.90;;;5.00;1.00;;;;;;5015957;28;20182;-78
2023/03/05 12:42:27;;;;;;;6.33;3.73;;;4.90;1.00;;;;;;5015519;28;20190;-78
2023/03/05 12:45:08;;;;;;;4.53;2.90;;;4.90;1.00;;;;;;5014348;28;20686;-78
2023/03/05 12:47:41;;;;;;;4.90;2.17;;;5.10;1.00;;;;;;5016594;28;20193;-78
2023/03/05 12:50:25;;;;;;;4.90;1.40;;;5.20;1.00;;;;;;5018547;28;20180;-79
2023/03/05 12:53:09;;;;;;;9.20;5.60;;;5.40;1.00;;;;;;5016559;28;20222;-79
2023/03/05 12:55:38;;;;;;;5.03;2.20;;;5.50;1.00;;;;;;5017331;28;20202;-79
2023/03/05 12:58:12;;;;;;;4.33;1.30;;;5.40;1.00;;;;;;5018510;28;20202;-79
2023/03/05 13:00:42;;;;;;;4.57;3.43;;;5.50;1.00;;;;;;5016961;28;20184;-82
2023/03/05 13:03:14;;;;;;;3.83;1.90;;;5.40;1.00;;;;;;5017279;28;20190;-81
2023/03/05 13:05:50;;;;;;;2.83;1.50;;;5.20;1.00;;;;;;5016483;28;20211;-80
2023/03/05 13:08:21;;;;;;;4.37;1.60;;;5.10;1.00;;;;;;5017284;28;20218;-80
2023/03/05 13:11:03;;;;;;;4.47;1.83;;;5.10;1.00;;;;;;5018975;28;20958;-79
2023/03/05 13:13:34;;;;;;;3.03;2.80;;;5.10;1.00;;;;;;5016085;28;20178;-80